Time;durP1;ratioP1;P1;durP2;ratioP2;P2;SDS_P1;SDS_P2;PMS_P1;PMS_P2;Temp;Humidity;BMP_temperature;BMP_pressure;BME280_temperature;BME280_humidity;BME280_pressure;Samples;Min_cycle;Max_cycle;Signal;HPM_P1;HPM_P2
2022/09/21 00:01:19;;;;;;;3.53;2.80;;;;;;;10.61;73.59;96331.72;5032536;28;20272;-82
2022/09/21 00:03:47;;;;;;;5.23;4.27;;;;;;;10.48;74.01;96330.56;5032866;28;20202;-82
2022/09/21 00:06:15;;;;;;;9.63;5.20;;;;;;;10.35;74.09;96329.25;5032471;28;20280;-82
2022/09/21 00:08:42;;;;;;;8.77;6.70;;;;;;;10.30;74.74;96328.09;5032197;28;20210;-82
2022/09/21 00:11:12;;;;;;;8.80;5.70;;;;;;;10.41;74.22;96321.84;5032236;28;20639;-82
2022/09/21 00:13:39;;;;;;;5.63;4.73;;;;;;;10.55;73.54;96326.41;5032389;28;20558;-82
2022/09/21 00:16:06;;;;;;;4.70;3.93;;;;;;;10.60;73.57;96319.00;5031620;28;20225;-82
2022/09/21 00:18:35;;;;;;;6.37;3.60;;;;;;;10.59;73.40;96318.19;5032240;28;20306;-82
2022/09/21 00:21:02;;;;;;;4.03;3.10;;;;;;;10.55;73.46;96319.50;5032052;28;20670;-82
2022/09/21 00:23:29;;;;;;;4.43;3.00;;;;;;;10.57;73.24;96321.91;5032083;28;20280;-82
2022/09/21 00:26:04;;;;;;;6.00;3.30;;;;;;;10.57;73.08;96322.72;5030917;28;20317;-82
2022/09/21 00:28:31;;;;;;;3.40;3.10;;;;;;;10.63;72.53;96328.97;5031967;28;20205;-82
2022/09/21 00:31:01;;;;;;;5.03;3.40;;;;;;;10.65;72.82;96322.72;5031734;28;20787;-82
2022/09/21 00:33:27;;;;;;;7.53;4.00;;;;;;;10.58;73.08;96324.31;5031729;28;20733;-82
2022/09/21 00:35:55;;;;;;;4.07;3.40;;;;;;;10.52;73.21;96326.72;5031300;28;20288;-82
2022/09/21 00:38:22;;;;;;;3.77;3.07;;;;;;;10.40;74.01;96331.34;5031509;28;20225;-82
2022/09/21 00:40:48;;;;;;;5.00;3.27;;;;;;;10.40;73.75;96331.34;5031421;28;20210;-82
2022/09/21 00:43:17;;;;;;;6.33;3.27;;;;;;;10.42;73.89;96328.59;5031370;28;20673;-82
2022/09/21 00:45:46;;;;;;;5.20;2.90;;;;;;;10.36;74.22;96324.91;5031642;28;20304;-82
2022/09/21 00:48:14;;;;;;;4.80;2.93;;;;;;;10.29;74.57;96322.16;5031278;28;20585;-82
2022/09/21 00:50:46;;;;;;;4.33;2.93;;;;;;;10.25;74.67;96320.84;5031907;28;20206;-82
2022/09/21 00:53:14;;;;;;;3.77;2.80;;;;;;;10.23;74.28;96320.19;5030985;28;20642;-82
2022/09/21 00:55:45;;;;;;;5.10;3.30;;;;;;;10.19;74.81;96320.69;5031245;28;20252;-82
2022/09/21 00:58:17;;;;;;;4.10;3.03;;;;;;;10.17;74.99;96328.53;5031688;28;20202;-82
2022/09/21 01:00:43;;;;;;;3.37;2.90;;;;;;;10.17;74.90;96320.00;5031460;28;20206;-82
2022/09/21 01:03:11;;;;;;;4.83;2.97;;;;;;;10.21;74.73;96324.69;5033910;28;20263;-82
2022/09/21 01:05:38;;;;;;;3.33;3.00;;;;;;;10.29;74.40;96326.50;5035459;28;20225;-82
2022/09/21 01:08:07;;;;;;;4.77;3.03;;;;;;;10.26;74.08;96319.06;5035341;28;20669;-82
2022/09/21 01:10:46;;;;;;;5.07;3.20;;;;;;;10.22;74.40;96321.16;5035305;28;20609;-82
2022/09/21 01:13:25;;;;;;;3.77;2.97;;;;;;;10.13;74.87;96319.50;5035510;28;20218;-82
2022/09/21 01:16:00;;;;;;;4.53;2.70;;;;;;;10.17;74.53;96320.00;5039896;28;20233;-82
2022/09/21 01:18:34;;;;;;;2.87;2.57;;;;;;;10.22;74.01;96320.34;5065750;22;20224;-80
2022/09/21 01:21:18;;;;;;;4.60;2.63;;;;;;;10.23;74.19;96321.97;5056409;28;20618;-80
2022/09/21 01:24:13;;;;;;;2.90;2.40;;;;;;;10.19;73.64;96324.06;5058170;28;20619;-80
2022/09/21 01:27:01;;;;;;;3.13;2.60;;;;;;;10.16;73.71;96320.97;5056911;28;20424;-80
2022/09/21 01:29:34;;;;;;;6.27;2.73;;;;;;;10.17;73.44;96317.44;5058278;28;20209;-79
2022/09/21 01:32:08;;;;;;;3.40;2.73;;;;;;;10.13;73.38;96321.25;5057595;28;20217;-80
2022/09/21 01:34:39;;;;;;;3.47;2.50;;;;;;;10.01;73.78;96313.81;5058012;28;20259;-79
2022/09/21 01:37:10;;;;;;;4.97;2.40;;;;;;;9.90;74.40;96314.09;5057124;28;20229;-79
2022/09/21 01:39:40;;;;;;;2.63;2.43;;;;;;;9.87;74.58;96321.31;5057374;28;20201;-79
2022/09/21 01:42:07;;;;;;;3.87;2.60;;;;;;;9.84;75.08;96321.59;5057302;28;20197;-80
2022/09/21 01:44:39;;;;;;;4.27;2.50;;;;;;;9.84;74.95;96317.28;5057155;28;20252;-79
2022/09/21 01:47:08;;;;;;;2.80;2.43;;;;;;;9.72;74.50;96322.84;5056352;28;20237;-80
2022/09/21 01:49:38;;;;;;;2.57;2.30;;;;;;;9.68;74.91;96322.34;5056688;28;20205;-79
2022/09/21 01:52:11;;;;;;;3.20;2.70;;;;;;;9.72;74.91;96320.28;5056014;28;20229;-79
2022/09/21 01:54:42;;;;;;;5.00;2.67;;;;;;;9.69;74.79;96329.09;5057418;28;20250;-80
2022/09/21 01:57:15;;;;;;;3.27;2.53;;;;;;;9.63;75.24;96327.13;5055791;28;20260;-79
2022/09/21 01:59:49;;;;;;;3.07;2.30;;;;;;;9.67;75.33;96321.53;5056640;28;20205;-79
2022/09/21 02:02:20;;;;;;;3.03;2.37;;;;;;;9.76;74.64;96319.81;5056578;28;20201;-79
2022/09/21 02:04:47;;;;;;;3.00;2.40;;;;;;;9.75;74.23;96328.50;5057386;28;20206;-80
2022/09/21 02:07:16;;;;;;;3.23;2.57;;;;;;;9.79;74.56;96322.09;5057711;28;20221;-80
2022/09/21 02:09:42;;;;;;;2.60;2.20;;;;;;;9.84;73.95;96324.97;5058533;28;20201;-80
2022/09/21 02:12:09;;;;;;;3.40;2.30;;;;;;;9.88;73.86;96325.50;5058251;28;20229;-80
2022/09/21 02:14:38;;;;;;;3.20;2.20;;;;;;;9.83;73.09;96325.94;5057262;28;20229;-80
2022/09/21 02:17:22;;;;;;;2.87;2.40;;;;;;;9.81;73.55;96322.75;5057128;28;20295;-79
2022/09/21 02:19:55;;;;;;;5.63;2.50;;;;;;;9.83;73.53;96314.84;5057519;28;20202;-79
2022/09/21 02:22:32;;;;;;;3.27;2.40;;;;;;;9.84;73.04;96319.84;5057675;28;20232;-79
2022/09/21 02:25:06;;;;;;;5.30;2.30;;;;;;;9.74;73.53;96324.31;5057308;28;20251;-80
2022/09/21 02:27:38;;;;;;;4.13;2.00;;;;;;;9.69;73.45;96321.38;5056915;28;20228;-80
2022/09/21 02:30:08;;;;;;;6.97;2.63;;;;;;;9.61;73.89;96317.03;5057102;28;20204;-80
2022/09/21 02:32:45;;;;;;;2.60;2.07;;;;;;;9.57;73.36;96322.59;5057189;28;20709;-80
2022/09/21 02:35:20;;;;;;;2.53;2.13;;;;;;;9.50;74.43;96316.44;5057176;28;20604;-80
2022/09/21 02:37:55;;;;;;;3.27;2.40;;;;;;;9.45;74.03;96323.81;5057416;28;20220;-79
2022/09/21 02:40:28;;;;;;;3.80;2.40;;;;;;;9.33;74.58;96321.50;5057264;28;20209;-79
2022/09/21 02:43:00;;;;;;;3.90;2.40;;;;;;;9.34;74.41;96328.25;5057938;28;20700;-80
2022/09/21 02:45:30;;;;;;;2.93;2.20;;;;;;;9.24;74.67;96331.84;5057232;28;20229;-80
2022/09/21 02:48:03;;;;;;;4.10;2.50;;;;;;;9.18;75.28;96329.91;5057867;28;20660;-80
2022/09/21 02:50:35;;;;;;;3.90;2.10;;;;;;;9.18;75.24;96333.28;5056236;28;20193;-80
2022/09/21 02:53:05;;;;;;;4.40;2.50;;;;;;;9.15;75.10;96325.06;5057020;28;20221;-80
2022/09/21 02:55:33;;;;;;;3.40;2.20;;;;;;;9.12;75.30;96326.16;5057115;28;20225;-80
2022/09/21 02:58:03;;;;;;;3.07;2.20;;;;;;;9.11;75.47;96334.00;5057439;28;20252;-80
2022/09/21 03:00:29;;;;;;;3.90;2.33;;;;;;;9.11;75.29;96329.66;5057195;28;20201;-80
2022/09/21 03:02:55;;;;;;;2.57;2.23;;;;;;;9.10;75.08;96329.81;5056370;28;20608;-80
2022/09/21 03:05:24;;;;;;;3.17;2.27;;;;;;;9.18;74.58;96324.75;5056635;28;20230;-79
2022/09/21 03:07:50;;;;;;;2.77;2.33;;;;;;;9.26;74.31;96327.38;5057263;28;20233;-80
2022/09/21 03:10:17;;;;;;;3.13;2.00;;;;;;;9.21;74.48;96334.75;5056649;28;20201;-79
2022/09/21 03:12:44;;;;;;;3.30;1.97;;;;;;;9.22;73.88;96338.94;5056608;28;20265;-80
2022/09/21 03:15:11;;;;;;;4.30;2.30;;;;;;;9.15;73.78;96330.19;5055992;28;20317;-79
2022/09/21 03:17:37;;;;;;;2.77;2.40;;;;;;;9.19;73.81;96334.06;5055269;28;20282;-79
2022/09/21 03:20:04;;;;;;;3.33;2.07;;;;;;;9.07;74.49;96333.50;5055815;28;20201;-80
2022/09/21 03:22:32;;;;;;;5.00;2.33;;;;;;;9.17;74.15;96325.72;5055682;28;20243;-79
2022/09/21 03:24:58;;;;;;;3.40;2.30;;;;;;;9.21;73.62;96332.16;5055280;28;20201;-80
2022/09/21 03:27:25;;;;;;;3.23;2.37;;;;;;;9.16;73.32;96336.94;5055098;28;20222;-80
2022/09/21 03:29:51;;;;;;;4.00;2.27;;;;;;;9.09;73.49;96334.16;5055893;28;20768;-79
2022/09/21 03:32:18;;;;;;;4.60;2.20;;;;;;;9.11;73.48;96337.38;5055263;28;20279;-79
2022/09/21 03:34:44;;;;;;;2.20;2.00;;;;;;;9.11;73.21;96337.38;5055954;28;20202;-80
2022/09/21 03:37:11;;;;;;;4.07;2.10;;;;;;;9.00;73.59;96341.00;5055851;28;20233;-80
2022/09/21 03:39:39;;;;;;;2.20;2.00;;;;;;;8.95;74.05;96334.69;5055924;28;20205;-79
2022/09/21 03:42:05;;;;;;;4.37;2.20;;;;;;;8.94;73.80;96331.31;5056067;28;20622;-79
2022/09/21 03:44:32;;;;;;;2.97;2.10;;;;;;;8.91;74.02;96330.78;5055486;28;20205;-80
2022/09/21 03:46:58;;;;;;;4.60;2.27;;;;;;;8.92;73.96;96335.78;5054419;28;20236;-80
2022/09/21 03:49:25;;;;;;;2.07;1.93;;;;;;;8.85;74.25;96328.84;5055294;28;20259;-79
2022/09/21 03:51:52;;;;;;;2.90;2.00;;;;;;;8.85;74.14;96332.19;5054710;28;20667;-79
2022/09/21 03:54:18;;;;;;;2.43;2.07;;;;;;;8.90;73.97;96340.25;5055323;28;20209;-79
2022/09/21 03:56:46;;;;;;;3.30;2.20;;;;;;;8.91;73.86;96341.06;5054643;28;20247;-80
2022/09/21 03:59:12;;;;;;;3.10;2.53;;;;;;;8.89;73.88;96336.06;5055011;28;20209;-80
2022/09/21 04:01:39;;;;;;;2.63;2.20;;;;;;;8.89;74.07;96337.84;5055339;28;20209;-80
2022/09/21 04:04:05;;;;;;;2.27;2.00;;;;;;;8.86;74.17;96338.94;5055207;28;20585;-80
2022/09/21 04:06:32;;;;;;;4.13;1.90;;;;;;;8.85;74.35;96339.09;5054677;28;20375;-79
2022/09/21 04:09:00;;;;;;;3.03;2.20;;;;;;;8.88;74.43;96341.34;5055229;28;20204;-80
2022/09/21 04:11:26;;;;;;;4.20;2.10;;;;;;;8.93;74.29;96341.72;5055068;28;20631;-80
2022/09/21 04:13:56;;;;;;;3.07;2.20;;;;;;;9.00;73.78;96342.75;5055266;28;20263;-79
2022/09/21 04:16:23;;;;;;;3.80;2.07;;;;;;;9.02;73.45;96342.63;5056816;28;20312;-79
2022/09/21 04:18:49;;;;;;;3.80;2.40;;;;;;;9.07;73.17;96342.94;5056635;28;20236;-79
2022/09/21 04:21:16;;;;;;;2.90;2.10;;;;;;;9.04;73.32;96350.97;5055886;28;20209;-80
2022/09/21 04:23:43;;;;;;;2.20;1.90;;;;;;;8.95;73.29;96344.97;5055659;28;20193;-80
2022/09/21 04:26:19;;;;;;;2.53;1.83;;;;;;;9.03;73.40;96347.59;5055007;28;20316;-80
2022/09/21 04:28:46;;;;;;;5.20;2.60;;;;;;;9.09;73.04;96347.00;5054898;28;20224;-80
2022/09/21 04:31:14;;;;;;;2.60;2.03;;;;;;;9.05;72.90;96350.00;5055167;28;20517;-80
2022/09/21 04:33:40;;;;;;;4.27;2.33;;;;;;;8.90;72.77;96342.81;5055327;28;20770;-80
2022/09/21 04:36:06;;;;;;;2.30;2.10;;;;;;;8.77;73.28;96341.59;5055003;28;20279;-80
2022/09/21 04:38:33;;;;;;;3.30;2.33;;;;;;;8.70;73.50;96353.38;5054234;28;20770;-80
2022/09/21 04:40:59;;;;;;;2.47;2.27;;;;;;;8.70;73.85;96353.38;5054699;28;20209;-80
2022/09/21 04:43:26;;;;;;;2.03;1.83;;;;;;;8.64;73.71;96355.59;5055145;28;20197;-79
2022/09/21 04:45:52;;;;;;;3.70;2.10;;;;;;;8.65;73.64;96357.22;5054835;28;20236;-80
2022/09/21 04:48:21;;;;;;;3.63;1.90;;;;;;;8.70;73.29;96359.31;5055009;28;20245;-79
2022/09/21 04:50:48;;;;;;;6.80;2.50;;;;;;;8.79;73.02;96370.50;5054335;28;20221;-79
2022/09/21 04:53:15;;;;;;;3.67;2.00;;;;;;;8.81;72.90;96364.25;5054529;28;20221;-80
2022/09/21 04:55:41;;;;;;;4.30;2.10;;;;;;;8.82;72.75;96371.00;5053818;28;20225;-80
2022/09/21 04:58:08;;;;;;;3.07;2.03;;;;;;;8.83;73.75;96375.19;5054421;28;20229;-79
2022/09/21 05:00:34;;;;;;;2.10;1.90;;;;;;;8.91;72.77;96374.44;5054059;28;20205;-79
2022/09/21 05:03:00;;;;;;;2.17;1.97;;;;;;;8.91;72.24;96370.13;5054349;28;20623;-79
2022/09/21 05:05:28;;;;;;;2.27;2.07;;;;;;;8.95;71.75;96378.34;5054439;28;20225;-80
2022/09/21 05:07:54;;;;;;;2.83;2.10;;;;;;;8.91;71.87;96377.81;5054063;28;20247;-79
2022/09/21 05:10:20;;;;;;;2.73;2.10;;;;;;;8.86;71.84;96381.78;5053920;28;20624;-80
2022/09/21 05:12:47;;;;;;;6.57;2.60;;;;;;;8.74;77.27;96385.53;5053954;28;20225;-80
2022/09/21 05:15:13;;;;;;;3.33;2.43;;;;;;;8.71;76.89;96386.59;5054113;28;20229;-80
2022/09/21 05:17:40;;;;;;;4.60;2.30;;;;;;;8.75;75.14;96387.13;5053883;28;20649;-79
2022/09/21 05:20:07;;;;;;;3.77;2.33;;;;;;;8.63;76.60;96387.34;5054447;28;20205;-80
2022/09/21 05:22:35;;;;;;;2.50;2.30;;;;;;;8.54;75.67;96393.34;5054647;28;20618;-79
2022/09/21 05:25:01;;;;;;;5.47;2.40;;;;;;;8.63;73.92;96383.97;5054213;28;20213;-80
2022/09/21 05:27:28;;;;;;;4.63;2.30;;;;;;;8.57;74.22;96390.50;5055389;28;20503;-80
2022/09/21 05:29:55;;;;;;;2.90;2.27;;;;;;;8.66;74.14;96392.16;5054258;28;20205;-79
2022/09/21 05:32:28;;;;;;;3.27;2.23;;;;;;;8.69;73.82;96391.06;5054847;28;20200;-80
2022/09/21 05:35:07;;;;;;;2.50;2.30;;;;;;;8.79;73.39;96393.59;5054562;28;20251;-80
2022/09/21 05:37:47;;;;;;;3.70;2.80;;;;;;;8.79;73.68;96386.72;5054590;28;20274;-79
2022/09/21 05:40:15;;;;;;;4.83;4.33;;;;;;;8.79;73.57;96391.03;5054413;28;20263;-79
2022/09/21 05:42:42;;;;;;;4.13;3.10;;;;;;;8.60;74.56;96381.69;5054595;28;20214;-80
2022/09/21 05:45:13;;;;;;;3.53;2.73;;;;;;;8.49;75.46;96392.16;5053277;28;20328;-79
2022/09/21 05:47:45;;;;;;;3.17;2.77;;;;;;;8.37;76.60;96393.31;5053843;28;20229;-79
2022/09/21 05:50:33;;;;;;;2.90;2.40;;;;;;;8.53;76.00;96393.47;5056136;28;20212;-79
2022/09/21 05:53:18;;;;;;;3.30;2.80;;;;;;;8.65;76.20;96388.03;5058320;28;20640;-79
2022/09/21 05:55:55;;;;;;;5.63;2.60;;;;;;;8.82;75.52;96389.00;5057138;28;20278;-80
2022/09/21 05:58:28;;;;;;;8.43;3.47;;;;;;;8.93;75.53;96388.75;5057956;28;20218;-80
2022/09/21 06:01:07;;;;;;;5.30;4.20;;;;;;;9.01;75.42;96393.19;5057838;28;20680;-80
2022/09/21 06:03:35;;;;;;;8.53;4.50;;;;;;;9.03;76.33;96393.84;5058534;28;20193;-80
2022/09/21 06:06:02;;;;;;;4.97;3.70;;;;;;;9.13;76.08;96396.31;5057589;28;20233;-79
2022/09/21 06:08:29;;;;;;;3.80;3.20;;;;;;;9.23;75.53;96397.06;5057854;28;20252;-79
2022/09/21 06:10:56;;;;;;;3.30;3.00;;;;;;;9.34;75.75;96397.63;5057345;28;20205;-80
2022/09/21 06:13:22;;;;;;;6.73;3.43;;;;;;;9.47;75.74;96393.84;5057433;28;20229;-80
2022/09/21 06:15:49;;;;;;;3.80;3.00;;;;;;;9.57;75.87;96397.97;5057875;28;20286;-79
2022/09/21 06:18:15;;;;;;;6.07;4.03;;;;;;;9.62;76.68;96403.44;5056517;28;20233;-79
2022/09/21 06:20:42;;;;;;;14.53;10.37;;;;;;;9.63;76.95;96399.13;5057665;28;20209;-80
2022/09/21 06:23:10;;;;;;;72.03;53.20;;;;;;;9.80;76.49;96406.00;5057268;28;20701;-80
2022/09/21 06:25:38;;;;;;;13.33;10.63;;;;;;;10.07;75.76;96410.16;5057067;28;20233;-80
2022/09/21 06:28:06;;;;;;;10.40;7.37;;;;;;;10.39;74.63;96407.75;5057410;28;20626;-80
2022/09/21 06:30:33;;;;;;;6.63;4.17;;;;;;;10.64;73.65;96407.84;5056614;28;20201;-80
2022/09/21 06:33:00;;;;;;;5.17;3.77;;;;;;;10.89;73.13;96412.13;5057065;28;20241;-79
2022/09/21 06:35:27;;;;;;;7.40;3.47;;;;;;;11.10;71.97;96410.88;5056699;28;20308;-80
2022/09/21 06:37:58;;;;;;;4.47;3.70;;;;;;;11.29;71.07;96405.41;5056885;28;20283;-80
2022/09/21 06:40:24;;;;;;;5.77;3.20;;;;;;;11.50;70.14;96410.91;5057351;28;20277;-80
2022/09/21 06:42:57;;;;;;;4.77;3.63;;;;;;;11.76;69.29;96415.88;5057097;28;20247;-79
2022/09/21 06:45:24;;;;;;;5.00;3.50;;;;;;;12.00;68.49;96412.47;5056800;28;20309;-79
2022/09/21 06:47:50;;;;;;;4.50;3.40;;;;;;;12.22;67.69;96416.94;5057218;28;20218;-80
2022/09/21 06:50:17;;;;;;;6.77;3.67;;;;;;;12.24;67.76;96419.34;5056587;28;20752;-80
2022/09/21 06:52:44;;;;;;;6.07;3.80;;;;;;;12.41;66.59;96419.13;5057699;28;20205;-80
2022/09/21 06:55:11;;;;;;;8.47;3.90;;;;;;;12.61;65.31;96414.38;5056857;28;20312;-80
2022/09/21 06:57:38;;;;;;;5.73;3.83;;;;;;;12.81;65.24;96417.34;5058060;28;20225;-79
2022/09/21 07:00:09;;;;;;;5.40;3.77;;;;;;;12.86;65.03;96412.47;5057078;28;20208;-80
2022/09/21 07:02:36;;;;;;;7.67;4.27;;;;;;;13.00;64.30;96413.50;5056931;28;20594;-80
2022/09/21 07:05:04;;;;;;;4.57;3.90;;;;;;;13.12;63.96;96418.09;5056916;28;20284;-80
2022/09/21 07:07:30;;;;;;;6.47;3.60;;;;;;;13.34;63.75;96410.56;5057852;28;20931;-80
2022/09/21 07:09:59;;;;;;;5.47;4.30;;;;;;;13.57;63.08;96421.72;5057317;28;20723;-80
2022/09/21 07:12:27;;;;;;;8.00;4.20;;;;;;;13.79;62.61;96415.69;5057167;28;20201;-79
2022/09/21 07:14:53;;;;;;;101.37;87.80;;;;;;;13.92;62.12;96415.06;5056287;28;20225;-80
2022/09/21 07:17:21;;;;;;;7.20;5.47;;;;;;;14.00;61.57;96417.59;5056196;28;20236;-80
2022/09/21 07:19:49;;;;;;;6.47;4.97;;;;;;;14.12;61.80;96418.75;5056618;28;20631;-80
2022/09/21 07:22:15;;;;;;;6.10;4.53;;;;;;;14.24;61.08;96405.38;5056166;28;20204;-80
2022/09/21 07:24:42;;;;;;;4.47;3.90;;;;;;;14.44;60.85;96409.84;5056525;28;20202;-80
2022/09/21 07:27:08;;;;;;;7.00;4.10;;;;;;;14.56;59.37;96407.63;5056071;28;20241;-80
2022/09/21 07:29:34;;;;;;;5.07;3.80;;;;;;;14.66;58.41;96410.72;5056422;28;20205;-80
2022/09/21 07:32:01;;;;;;;6.43;4.27;;;;;;;14.60;58.84;96413.25;5056158;28;20263;-79
2022/09/21 07:34:29;;;;;;;5.83;4.37;;;;;;;14.68;59.13;96416.53;5055945;28;20225;-79
2022/09/21 07:36:55;;;;;;;4.70;4.10;;;;;;;14.75;58.78;96406.25;5055036;28;20237;-79
2022/09/21 07:39:22;;;;;;;5.60;3.70;;;;;;;14.88;58.73;96418.56;5056562;28;20291;-80
2022/09/21 07:41:48;;;;;;;4.93;4.10;;;;;;;15.08;58.21;96417.78;5055738;28;20206;-79
2022/09/21 07:44:14;;;;;;;5.73;3.97;;;;;;;15.26;57.03;96419.16;5056079;28;20201;-80
2022/09/21 07:46:41;;;;;;;4.33;3.60;;;;;;;15.35;58.01;96416.25;5057434;28;20667;-80
2022/09/21 07:49:07;;;;;;;4.43;3.10;;;;;;;15.59;56.98;96417.69;5057525;28;20722;-80
2022/09/21 07:51:35;;;;;;;5.65;2.83;;;;;;;15.70;55.83;96418.97;5057601;28;20205;-80
2022/09/21 07:54:04;;;;;;;2.80;2.47;;;;;;;15.67;56.12;96416.75;5056855;28;20225;-79
2022/09/21 07:56:30;;;;;;;3.78;2.08;;;;;;;15.77;54.54;96420.66;5056574;28;20645;-80
2022/09/21 08:01:41;;;;;;;2.53;1.67;;;;;;;15.98;54.03;96419.78;5058650;28;20220;-80
2022/09/21 08:04:10;;;;;;;7.93;2.10;;;;;;;16.04;53.35;96423.41;5058984;28;20249;-80
2022/09/21 08:06:39;;;;;;;2.10;1.50;;;;;;;16.10;52.65;96418.28;5058339;28;20233;-79
2022/09/21 08:09:07;;;;;;;3.35;2.00;;;;;;;16.20;51.72;96416.13;5057583;28;20201;-80
2022/09/21 08:11:34;;;;;;;5.35;2.00;;;;;;;16.51;51.56;96407.13;5057465;28;20210;-80
2022/09/21 08:14:02;;;;;;;2.13;1.67;;;;;;;16.44;50.24;96414.06;5057357;28;20243;-80
2022/09/21 08:16:30;;;;;;;2.75;1.60;;;;;;;16.52;51.55;96417.31;5057724;28;20225;-80
2022/09/21 08:18:57;;;;;;;2.72;1.30;;;;;;;16.75;49.96;96414.41;5058240;28;20255;-80
2022/09/21 08:21:23;;;;;;;3.17;1.48;;;;;;;17.01;49.69;96410.31;5058130;28;20205;-80
2022/09/21 08:23:51;;;;;;;4.32;2.03;;;;;;;17.03;49.54;96410.91;5057630;28;20190;-80
2022/09/21 08:26:20;;;;;;;3.60;2.20;;;;;;;17.02;49.68;96411.91;5078368;22;20283;-88
2022/09/21 08:28:48;;;;;;;2.13;1.35;;;;;;;16.92;48.13;96418.31;5055666;28;20282;-88
2022/09/21 08:31:16;;;;;;;1.60;1.38;;;;;;;17.02;49.12;96417.94;5055605;28;20232;-87
2022/09/21 08:33:42;;;;;;;4.57;1.90;;;;;;;17.18;47.97;96420.16;5055896;28;20312;-89
2022/09/21 08:36:09;;;;;;;2.58;1.90;;;;;;;17.39;48.81;96419.19;5055959;28;20241;-88
2022/09/21 08:38:37;;;;;;;6.28;1.75;;;;;;;17.14;47.80;96421.56;5055529;28;20220;-88
2022/09/21 08:41:16;;;;;;;2.08;1.40;;;;;;;17.00;47.23;96421.72;5055597;28;20778;-89
2022/09/21 08:43:44;;;;;;;2.40;1.65;;;;;;;16.97;49.17;96414.28;5054428;28;20205;-89
2022/09/21 08:46:14;;;;;;;1.50;1.30;;;;;;;17.36;47.53;96422.19;5053511;28;20229;-88
2022/09/21 08:48:46;;;;;;;1.38;1.10;;;;;;;17.49;46.89;96424.03;5053354;28;20209;-89
2022/09/21 08:51:16;;;;;;;1.63;1.40;;;;;;;17.70;45.86;96416.06;5053802;28;20570;-87
2022/09/21 08:53:46;;;;;;;2.42;1.30;;;;;;;17.51;47.27;96424.63;5053829;28;20227;-88
2022/09/21 08:56:15;;;;;;;1.65;1.40;;;;;;;17.49;45.43;96424.84;5053910;28;20414;-89
2022/09/21 08:58:43;;;;;;;2.15;1.60;;;;;;;17.70;47.03;96421.28;5053846;28;20197;-87
2022/09/21 09:01:28;;;;;;;2.97;1.48;;;;;;;18.13;47.07;96421.63;5052706;28;20205;-87
2022/09/21 09:04:10;;;;;;;1.58;1.30;;;;;;;17.40;46.39;96417.41;5054188;28;20189;-88
2022/09/21 09:06:47;;;;;;;2.03;1.27;;;;;;;17.50;46.75;96420.44;5054067;28;20252;-88
2022/09/21 09:09:34;;;;;;;2.30;1.20;;;;;;;17.47;45.93;96426.03;5055052;28;20208;-87
2022/09/21 09:12:18;;;;;;;3.47;1.40;;;;;;;17.57;44.82;96416.00;5055123;28;20708;-88
2022/09/21 09:15:00;;;;;;;3.80;2.33;;;;;;;17.45;45.78;96415.81;5055225;28;20221;-87
2022/09/21 09:17:42;;;;;;;1.23;1.10;;;;;;;17.37;44.53;96410.78;5054794;28;20572;-88
2022/09/21 09:20:13;;;;;;;0.85;0.85;;;;;;;17.59;45.03;96408.81;5054404;28;20236;-87
2022/09/21 09:22:45;;;;;;;1.92;1.10;;;;;;;17.76;44.94;96411.84;5054241;28;20592;-88
2022/09/21 09:25:18;;;;;;;1.40;1.20;;;;;;;17.93;45.76;96413.84;5058037;28;20228;-88
2022/09/21 09:27:49;;;;;;;2.10;1.10;;;;;;;18.38;44.61;96406.16;5057861;28;20727;-87
2022/09/21 09:30:19;;;;;;;1.00;0.90;;;;;;;18.41;44.32;96417.97;5059174;28;20604;-88
2022/09/21 09:32:52;;;;;;;1.80;1.40;;;;;;;18.69;43.43;96409.88;5058920;28;20267;-89
2022/09/21 09:35:26;;;;;;;4.40;1.20;;;;;;;17.88;44.53;96411.06;5057994;28;20229;-89
2022/09/21 09:37:57;;;;;;;1.00;0.90;;;;;;;17.70;42.56;96407.44;5058621;28;20221;-89
2022/09/21 09:40:35;;;;;;;1.80;1.15;;;;;;;17.66;43.36;96408.84;5057819;28;20197;-87
2022/09/21 09:43:10;;;;;;;1.30;1.10;;;;;;;17.46;45.25;96404.41;5058161;28;20205;-87
2022/09/21 09:45:47;;;;;;;1.63;1.25;;;;;;;17.08;45.48;96398.13;5058018;28;20906;-87
2022/09/21 09:48:26;;;;;;;2.60;1.20;;;;;;;16.67;46.47;96403.41;5057495;28;20560;-88
2022/09/21 09:50:53;;;;;;;2.05;1.10;;;;;;;16.04;47.60;96403.44;5056194;28;20202;-87
2022/09/21 09:53:22;;;;;;;3.40;1.23;;;;;;;15.67;49.71;96401.19;5055943;28;20611;-88
2022/09/21 09:55:51;;;;;;;2.17;1.30;;;;;;;15.58;49.42;96405.72;5057267;28;20261;-89
2022/09/21 09:58:21;;;;;;;1.85;1.63;;;;;;;15.61;49.69;96394.13;5058424;28;20300;-87
2022/09/21 10:00:51;;;;;;;4.50;1.83;;;;;;;15.63;49.86;96398.16;5058171;28;20867;-89
2022/09/21 10:03:19;;;;;;;3.28;1.17;;;;;;;15.58;48.51;96394.53;5058163;28;20213;-89
2022/09/21 10:05:46;;;;;;;1.48;1.20;;;;;;;15.30;49.16;96389.25;5056652;28;20575;-88
2022/09/21 10:08:29;;;;;;;1.83;1.30;;;;;;;14.93;49.37;96385.91;5056333;28;20206;-87
2022/09/21 10:10:56;;;;;;;1.45;1.30;;;;;;;14.79;50.13;96384.16;5056820;28;20217;-88
2022/09/21 10:13:29;;;;;;;1.85;1.05;;;;;;;14.82;50.88;96386.38;5056841;28;20205;-88
2022/09/21 10:15:58;;;;;;;1.75;1.10;;;;;;;15.06;50.58;96383.44;5055104;28;20320;-89
2022/09/21 10:18:29;;;;;;;1.40;1.20;;;;;;;15.60;50.57;96377.75;5056977;28;20201;-89
2022/09/21 10:20:59;;;;;;;1.55;1.20;;;;;;;15.82;50.41;96378.50;5057356;28;20631;-89
2022/09/21 10:23:27;;;;;;;2.42;1.25;;;;;;;15.97;50.32;96376.59;5056788;28;20209;-89
2022/09/21 10:25:59;;;;;;;2.80;1.88;;;;;;;15.88;50.55;96372.56;5056663;28;20233;-88
2022/09/21 10:28:27;;;;;;;2.08;1.75;;;;;;;16.00;48.52;96372.84;5056779;28;20209;-88
2022/09/21 10:31:12;;;;;;;2.22;1.20;;;;;;;16.32;49.10;96363.63;5056761;28;20292;-89
2022/09/21 10:33:51;;;;;;;1.92;1.20;;;;;;;16.38;48.80;96355.03;5058273;28;20683;-87
2022/09/21 10:36:29;;;;;;;1.15;1.00;;;;;;;15.98;48.43;96361.81;5056357;28;20791;-88
2022/09/21 10:38:56;;;;;;;1.00;0.98;;;;;;;15.73;48.09;96366.69;5057576;28;20213;-88
2022/09/21 10:41:23;;;;;;;0.80;0.80;;;;;;;15.71;47.77;96359.06;5057442;28;20568;-87
2022/09/21 10:43:53;;;;;;;1.05;0.98;;;;;;;15.65;49.83;96359.03;5057566;28;20231;-87
2022/09/21 10:46:32;;;;;;;2.00;1.25;;;;;;;15.89;48.52;96362.00;5057511;28;20233;-89
2022/09/21 10:49:04;;;;;;;1.42;0.80;;;;;;;16.06;47.89;96354.69;5057265;28;20201;-88
2022/09/21 10:51:33;;;;;;;1.17;1.00;;;;;;;16.32;48.67;96354.03;5057341;28;20716;-88
2022/09/21 10:54:00;;;;;;;1.52;0.90;;;;;;;16.40;48.06;96353.84;5056225;28;20221;-87
2022/09/21 10:56:26;;;;;;;1.10;1.00;;;;;;;16.34;48.20;96354.66;5055396;28;20316;-89
2022/09/21 10:59:22;;;;;;;3.22;1.20;;;;;;;16.27;48.81;96356.41;5056947;28;20696;-89
2022/09/21 11:01:50;;;;;;;1.42;1.10;;;;;;;16.39;47.94;96346.25;5057726;28;20198;-88
2022/09/21 11:04:23;;;;;;;1.33;1.13;;;;;;;16.25;48.59;96348.00;5057775;28;20201;-87
2022/09/21 11:06:58;;;;;;;1.83;1.20;;;;;;;16.16;47.45;96349.16;5056501;28;20232;-89
2022/09/21 11:09:30;;;;;;;2.83;1.10;;;;;;;16.17;47.79;96343.75;5058354;28;20595;-87
2022/09/21 11:12:08;;;;;;;2.15;1.40;;;;;;;16.22;48.32;96346.59;5057981;28;20693;-87
2022/09/21 11:14:45;;;;;;;2.10;1.20;;;;;;;16.21;49.17;96344.16;5058403;28;20217;-88
2022/09/21 11:17:18;;;;;;;1.65;1.00;;;;;;;16.32;49.14;96341.03;5058382;28;20229;-88
2022/09/21 11:19:51;;;;;;;1.50;0.90;;;;;;;16.34;47.80;96341.66;5058252;28;20206;-89
2022/09/21 11:22:24;;;;;;;2.35;1.00;;;;;;;16.52;48.09;96338.53;5057203;28;20185;-88
2022/09/21 11:25:00;;;;;;;1.05;0.95;;;;;;;16.54;47.00;96334.72;5056755;28;20197;-87
2022/09/21 11:27:34;;;;;;;1.10;1.00;;;;;;;16.53;47.94;96337.53;5057349;28;20283;-88
2022/09/21 11:30:09;;;;;;;1.40;1.10;;;;;;;16.39;48.47;96328.84;5058675;28;20308;-87
2022/09/21 11:33:03;;;;;;;2.53;2.33;;;;;;;16.21;49.23;96331.19;5053672;28;20208;-87
2022/09/21 11:35:47;;;;;;;2.85;1.00;;;;;;;16.23;48.91;96334.38;5052189;28;20237;-87
2022/09/21 11:38:29;;;;;;;0.90;0.90;;;;;;;16.30;48.25;96332.63;5052638;28;20229;-87
2022/09/21 11:41:14;;;;;;;0.95;0.88;;;;;;;16.23;46.94;96322.19;5052568;28;20220;-88
2022/09/21 11:44:10;;;;;;;1.10;0.98;;;;;;;16.38;47.82;96316.06;5052492;28;20220;-87
2022/09/21 11:46:46;;;;;;;1.40;0.93;;;;;;;16.27;46.84;96319.22;5049722;28;20225;-87
2022/09/21 11:49:27;;;;;;;1.52;1.05;;;;;;;16.14;47.86;96315.56;5052489;28;20732;-88
2022/09/21 11:52:13;;;;;;;0.80;0.80;;;;;;;16.29;47.56;96312.03;5052753;28;20297;-87
2022/09/21 11:55:04;;;;;;;2.58;1.00;;;;;;;16.11;46.57;96305.56;5052122;28;20213;-87